• Join FlightAware (Why Join?)
  • Login
  • US Flag 
Rudolph Flight #1: Scheduled 
08:47PM EST


 

Airport Tracker/Info


-or-


 

Live Flight TrackerFlight Track Log ✈ UAL4788 ✈ 16-Apr-2014 ✈ KCLE - KIAD

Flight Track Log - Related Links

Times and Time Zones

All times are in EDT time to prevent confusion due to time zone crossing. See the UAL4788 flight status page for this flight to view local times or setup timezone preferences in your user account.

Time Position Orientation Groundspeed Altitude Reporting Facility
EDT Latitude Longitude Course Direction KTS MPH feet Rate Location/Type
10:47AM 41.4178 -81.8350 127° Southeast 140 161 1,600  Level Cleveland Center
10:48AM 41.3953 -81.7650 113° Southeast 191 220 3,100 1,140 Climbing Cleveland Center
10:48AM 41.3875 -81.7519 128° Southeast 190 219 3,500 1,500 Climbing Cleveland Center
10:49AM 41.3644 -81.7081 125° Southeast 189 217 4,700 1,380 Climbing Cleveland Center
10:50AM 41.3331 -81.6447 123° Southeast 193 222 6,100 1,200 Climbing Cleveland Center
10:51AM 41.2986 -81.5753 123° Southeast 212 244 7,300 1,320 Climbing Cleveland Center
10:52AM 41.1601 -81.3302 127° Southeast  Level FlightAware Approximate
10:52AM 41.2636 -81.5072 124° Southeast 217 250 8,900  Level Cleveland Center
10:53AM 41.2325 -81.4456 124° Southeast 217 250 10,400 1,380 Climbing Cleveland Center
10:54AM 41.1919 -81.3683 125° Southeast 226 260 11,800 1,260 Climbing Cleveland Center
10:55AM 41.1508 -81.2931 126° Southeast 246 283 13,100 1,260 Climbing Cleveland Center
10:57AM 41.1094 -81.2167 126° Southeast 250 288 14,500 1,320 Climbing Cleveland Center
10:58AM 41.0667 -81.1414 127° Southeast 252 290 15,900 1,380 Climbing Cleveland Center
10:59AM 41.0181 -81.0539 126° Southeast 251 289 17,400 960 Climbing Cleveland Center
11:00AM 40.9831 -80.9878 125° Southeast 251 289 18,000 900 Climbing Cleveland Center
11:01AM 40.9333 -80.8964 126° Southeast 253 291 19,300 1,020 Climbing Cleveland Center
11:02AM 40.8908 -80.8192 126° Southeast 258 297 20,200 780 Climbing Cleveland Center
11:03AM 40.8464 -80.7411 127° Southeast 262 302 21,000 360 Climbing Cleveland Center
11:04AM 40.8003 -80.6586 126° Southeast 283 326 21,000  Level Cleveland Center
11:05AM 40.7489 -80.5664 126° Southeast 305 351 21,000  Level Cleveland Center
11:06AM 40.6883 -80.4567 126° Southeast 312 359 21,000  Level Cleveland Center
11:07AM 40.6350 -80.3625 127° Southeast 318 366 21,000  Level Cleveland Center
11:08AM 40.5789 -80.2650 127° Southeast 315 362 21,000  Level Cleveland Center
11:09AM 40.5242 -80.1789 130° Southeast 310 357 21,000  Level Cleveland Center
11:10AM 40.4658 -80.0942 132° Southeast 310 357 21,000  Level Cleveland Center
11:11AM 40.4114 -80.0089 130° Southeast 310 357 21,000  Level Cleveland Center
11:12AM 40.3469 -79.9311 137° Southeast 304 350 21,000  Level Cleveland Center
11:13AM 40.2858 -79.8539 136° Southeast 304 350 21,000  Level Cleveland Center
11:14AM 40.2250 -79.7772 136° Southeast 304 350 21,000  Level Cleveland Center
11:15AM 40.1639 -79.7006 136° Southeast 304 350 21,000  Level Cleveland Center
11:16AM 40.0903 -79.6094 137° Southeast 304 350 21,000  Level Cleveland Center
11:17AM 40.0300 -79.5342 136° Southeast 302 348 21,000  Level Cleveland Center
11:18AM 39.9686 -79.4589 137° Southeast 303 349 21,000  Level Cleveland Center
11:19AM 39.9072 -79.3833 137° Southeast 304 350 21,000  Level Cleveland Center
11:20AM 39.8467 -79.3078 136° Southeast 304 350 21,000 -420 Level Cleveland Center
11:21AM 39.7839 -79.2311 137° Southeast 309 356 20,200 -1,260 Descending Cleveland Center
11:22AM 39.7197 -79.1556 138° Southeast 311 358 18,500 -1,560 Descending Cleveland Center
11:23AM 39.6444 -79.0639 137° Southeast 312 359 17,000 -1,020 Descending Cleveland Center
11:24AM 39.6153 -78.9606 110° East 293 337 16,500 -780 Descending Cleveland Center
11:25AM 39.5947 -78.8528 104° East 304 350 15,500 -1,020 Descending Cleveland Center
11:26AM 39.5719 -78.7381 104° East 321 369 14,400 -1,080 Descending Cleveland Center
11:28AM 39.5464 -78.6244 106° East 318 366 13,300 -1,080 Descending Washington Center
11:29AM 39.5242 -78.5133 105° East 318 366 12,200 -1,200 Descending Washington Center
11:30AM 39.4803 -78.4281 124° Southeast 318 366 11,000 -1,080 Descending Washington Center
11:32AM 39.3433 -78.3156 142° Southeast 283 326 9,000 -1,020 Descending Washington Center
11:33AM 39.2756 -78.2672 151° Southeast 288 331 8,000 -960 Descending Washington Center
11:34AM 39.2036 -78.2192 153° Southeast 288 331 7,200 -780 Descending Washington Center
11:35AM 39.1339 -78.1739 153° Southeast 288 331 6,500 -600 Descending Washington Center
11:36AM 39.0939 -78.0922 122° Southeast 260 299 6,000 -180 Descending Washington Center
11:38AM 39.0333 -77.9167 114° Southeast 255 293 6,000  Level Potomac TRACON
11:39AM 39.2101 -77.7034 150° Southeast  Level FlightAware Approximate
11:39AM 39.0000 -77.8333 117° Southeast 253 291 6,000  Level Potomac TRACON
11:40AM 39.1486 -77.6486 142° Southeast  Level FlightAware Approximate
11:40AM 38.9667 -77.7500 117° Southeast 255 293 6,000  Level Potomac TRACON
11:41AM 38.9500 -77.6667 104° East 248 285 6,000  Level Potomac TRACON
11:41AM 38.9167 -77.6000 123° Southeast 268 308 6,000 -420 Level Potomac TRACON
11:42AM 38.8500 -77.5667 159° South 268 308 5,300 -1,380 Descending Potomac TRACON
11:43AM 38.8333 -77.5167 113° Southeast 205 236 3,300 -1,680 Descending Potomac TRACON
11:44AM 38.8500 -77.4667 67° East 168 193 2,000 -1,140 Descending Potomac TRACON
11:45AM 38.9000 -77.4667 360° North 149 171 1,100 -900 Descending Potomac TRACON